createdAt,value
2023-10-02T00:00:00.629Z,15.7
2023-10-02T00:01:00.628Z,15.7
2023-10-02T00:02:00.763Z,15.7
2023-10-02T00:03:00.632Z,15.7
2023-10-02T00:04:00.810Z,15.7
2023-10-02T00:05:00.718Z,15.7
2023-10-02T00:06:00.883Z,15.7
2023-10-02T00:07:00.561Z,15.7
2023-10-02T00:08:00.637Z,15.7
2023-10-02T00:09:00.571Z,15.8
2023-10-02T00:10:01.596Z,15.8
2023-10-02T00:11:18.865Z,15.8
2023-10-02T00:12:03.235Z,15.8
2023-10-02T00:13:00.556Z,15.8
2023-10-02T00:14:02.982Z,15.8
2023-10-02T00:15:03.065Z,15.8
2023-10-02T00:16:00.599Z,15.8
2023-10-02T00:17:02.677Z,15.8
2023-10-02T00:18:00.618Z,15.8
2023-10-02T00:19:00.574Z,15.8
2023-10-02T00:20:00.591Z,15.8
2023-10-02T00:21:00.549Z,15.8
2023-10-02T00:22:00.554Z,15.8
2023-10-02T00:23:00.607Z,15.8
2023-10-02T00:24:00.885Z,15.8
2023-10-02T00:25:03.333Z,15.8
2023-10-02T00:26:00.612Z,15.8
2023-10-02T00:27:00.553Z,15.8
2023-10-02T00:28:00.622Z,15.8
2023-10-02T00:29:00.785Z,15.8
2023-10-02T00:30:01.413Z,15.8
2023-10-02T00:31:00.620Z,15.8
2023-10-02T00:32:01.784Z,15.8
2023-10-02T00:33:00.581Z,15.8
2023-10-02T00:34:00.722Z,15.8
2023-10-02T00:35:02.645Z,15.8
2023-10-02T00:36:00.578Z,15.8
2023-10-02T00:37:03.115Z,15.8
2023-10-02T00:38:00.576Z,15.7
2023-10-02T00:39:00.608Z,15.7
2023-10-02T00:40:00.587Z,15.7
2023-10-02T00:41:00.599Z,15.7
2023-10-02T00:42:00.565Z,15.7
2023-10-02T00:43:02.275Z,15.7
2023-10-02T00:44:00.757Z,15.7
2023-10-02T00:45:00.630Z,15.7
2023-10-02T00:46:00.624Z,15.7
2023-10-02T00:47:00.668Z,15.7
2023-10-02T00:48:00.712Z,15.7
2023-10-02T00:49:00.667Z,15.7
2023-10-02T00:50:03.919Z,15.7
2023-10-02T00:51:02.172Z,15.7
2023-10-02T00:52:00.720Z,15.7
2023-10-02T00:53:03.474Z,15.7
2023-10-02T00:54:00.837Z,15.8
2023-10-02T00:55:01.457Z,15.7
2023-10-02T00:56:00.976Z,15.7
2023-10-02T00:57:03.684Z,15.8
2023-10-02T00:58:03.302Z,15.8
2023-10-02T00:59:01.029Z,15.7
2023-10-02T01:00:01.709Z,15.8
2023-10-02T01:01:00.744Z,15.8
2023-10-02T01:02:00.793Z,15.8
2023-10-02T01:03:03.747Z,15.8
2023-10-02T01:04:03.584Z,15.8
2023-10-02T01:05:00.978Z,15.8
2023-10-02T01:06:00.581Z,15.8
2023-10-02T01:07:00.797Z,15.8
2023-10-02T01:08:00.655Z,15.8
2023-10-02T01:09:01.441Z,15.8
2023-10-02T01:10:01.961Z,15.8
2023-10-02T01:11:01.167Z,15.8
2023-10-02T01:12:00.690Z,15.8
2023-10-02T01:13:00.739Z,15.8
2023-10-02T01:14:02.478Z,15.8
2023-10-02T01:15:01.176Z,15.8
2023-10-02T01:16:03.009Z,15.8
2023-10-02T01:17:01.377Z,15.8
2023-10-02T01:18:00.769Z,15.8
2023-10-02T01:19:00.898Z,15.8
2023-10-02T01:20:00.866Z,15.7
2023-10-02T01:21:02.429Z,15.7
2023-10-02T01:22:01.275Z,15.7
2023-10-02T01:23:02.924Z,15.7
2023-10-02T01:24:00.717Z,15.7
2023-10-02T01:25:02.229Z,15.7
2023-10-02T01:26:00.905Z,15.7
2023-10-02T01:27:00.767Z,15.7
2023-10-02T01:28:00.985Z,15.7
2023-10-02T01:29:00.659Z,15.7
2023-10-02T01:30:00.556Z,15.7
2023-10-02T01:31:00.588Z,15.7
2023-10-02T01:32:05.253Z,15.7
2023-10-02T01:33:02.103Z,15.7
2023-10-02T01:34:02.075Z,15.8
2023-10-02T01:35:00.641Z,15.7
2023-10-02T01:36:01.374Z,15.7
2023-10-02T01:37:01.283Z,15.7
2023-10-02T01:38:00.685Z,15.7
2023-10-02T01:39:02.981Z,15.7
2023-10-02T01:40:00.617Z,15.7
2023-10-02T01:41:02.766Z,15.7
2023-10-02T01:42:00.557Z,15.7
2023-10-02T01:43:02.454Z,15.7
2023-10-02T01:44:03.726Z,15.7
2023-10-02T01:45:00.590Z,15.7
2023-10-02T01:46:00.554Z,15.7
2023-10-02T01:47:00.635Z,15.7
2023-10-02T01:48:01.203Z,15.7
2023-10-02T01:49:00.558Z,15.7
2023-10-02T01:50:00.597Z,15.7
2023-10-02T01:51:00.558Z,15.7
2023-10-02T01:52:00.636Z,15.7
2023-10-02T01:53:03.796Z,15.7
2023-10-02T01:54:03.449Z,15.7
2023-10-02T01:55:00.556Z,15.7
2023-10-02T01:56:00.641Z,15.7
2023-10-02T01:57:00.663Z,15.7
2023-10-02T01:58:02.056Z,15.7
2023-10-02T01:59:00.978Z,15.7
2023-10-02T02:00:00.560Z,15.7
2023-10-02T02:01:00.634Z,15.7
2023-10-02T02:02:00.805Z,15.7
2023-10-02T02:03:00.760Z,15.7
2023-10-02T02:04:00.947Z,15.7
2023-10-02T02:05:00.595Z,15.7
2023-10-02T02:06:00.603Z,15.7
2023-10-02T02:07:01.973Z,15.7
2023-10-02T02:08:00.564Z,15.7
2023-10-02T02:09:00.845Z,15.7
2023-10-02T02:10:00.608Z,15.7
2023-10-02T02:11:04.393Z,15.7
2023-10-02T02:12:03.146Z,15.7
2023-10-02T02:13:00.582Z,15.6
2023-10-02T02:14:00.737Z,15.6
2023-10-02T02:15:00.680Z,15.6
2023-10-02T02:16:00.555Z,15.6
2023-10-02T02:17:00.622Z,15.6
2023-10-02T02:18:00.703Z,15.7
2023-10-02T02:19:01.940Z,15.7
2023-10-02T02:20:00.649Z,15.7
2023-10-02T02:21:00.626Z,15.7
2023-10-02T02:22:02.689Z,15.7
2023-10-02T02:23:00.602Z,15.6
2023-10-02T02:24:01.256Z,15.6
2023-10-02T02:25:00.561Z,15.6
2023-10-02T02:26:00.625Z,15.6
2023-10-02T02:27:00.807Z,15.6
2023-10-02T02:28:00.581Z,15.6
2023-10-02T02:29:00.810Z,15.6
2023-10-02T02:30:01.008Z,15.6
2023-10-02T02:31:00.562Z,15.6
2023-10-02T02:32:00.795Z,15.6
2023-10-02T02:33:00.599Z,15.6
2023-10-02T02:34:04.192Z,15.6
2023-10-02T02:35:00.591Z,15.6
2023-10-02T02:36:02.513Z,15.6
2023-10-02T02:37:00.572Z,15.6
2023-10-02T02:38:00.592Z,15.6
2023-10-02T02:39:02.769Z,15.6
2023-10-02T02:40:01.507Z,15.6
2023-10-02T02:41:07.916Z,15.6
2023-10-02T02:42:00.563Z,15.6
2023-10-02T02:43:00.556Z,15.6
2023-10-02T02:44:00.848Z,15.6
2023-10-02T02:45:00.579Z,15.6
2023-10-02T02:46:00.605Z,15.6
2023-10-02T02:47:01.260Z,15.6
2023-10-02T02:48:02.622Z,15.6
2023-10-02T02:49:00.567Z,15.6
2023-10-02T02:50:00.636Z,15.6
2023-10-02T02:51:00.601Z,15.6
2023-10-02T02:52:00.580Z,15.6
2023-10-02T02:53:00.625Z,15.6
2023-10-02T02:54:00.737Z,15.6
2023-10-02T02:55:02.009Z,15.6
2023-10-02T02:56:03.065Z,15.6
2023-10-02T02:57:00.565Z,15.6
2023-10-02T02:58:00.585Z,15.6
2023-10-02T02:59:00.630Z,15.6
2023-10-02T03:00:03.781Z,15.6
2023-10-02T03:01:00.606Z,15.6
2023-10-02T03:02:00.712Z,15.6
2023-10-02T03:03:01.778Z,15.6
2023-10-02T03:04:01.243Z,15.6
2023-10-02T03:05:00.597Z,15.6
2023-10-02T03:06:00.608Z,15.6
2023-10-02T03:07:00.561Z,15.6
2023-10-02T03:08:00.633Z,15.6
2023-10-02T03:09:00.561Z,15.6
2023-10-02T03:10:00.584Z,15.6
2023-10-02T03:11:00.620Z,15.6
2023-10-02T03:12:00.561Z,15.6
2023-10-02T03:13:00.588Z,15.6
2023-10-02T03:14:00.868Z,15.7
2023-10-02T03:15:00.583Z,15.7
2023-10-02T03:16:01.965Z,15.7
2023-10-02T03:17:00.992Z,15.7
2023-10-02T03:18:00.605Z,15.7
2023-10-02T03:19:00.565Z,15.7
2023-10-02T03:20:00.814Z,15.7
2023-10-02T03:21:01.402Z,15.6
2023-10-02T03:22:00.577Z,15.6
2023-10-02T03:23:00.585Z,15.6
2023-10-02T03:24:01.568Z,15.6
2023-10-02T03:25:00.577Z,15.6
2023-10-02T03:26:00.723Z,15.6
2023-10-02T03:27:00.560Z,15.6
2023-10-02T03:28:00.566Z,15.6
2023-10-02T03:29:09.934Z,15.6
2023-10-02T03:30:00.548Z,15.6
2023-10-02T03:31:00.724Z,15.6
2023-10-02T03:32:00.655Z,15.6
2023-10-02T03:33:01.645Z,15.6
2023-10-02T03:34:03.322Z,15.6
2023-10-02T03:35:00.688Z,15.6
2023-10-02T03:36:00.904Z,15.6
2023-10-02T03:37:03.110Z,15.6
2023-10-02T03:38:01.758Z,15.6
2023-10-02T03:39:00.583Z,15.6
2023-10-02T03:40:01.648Z,15.6
2023-10-02T03:41:02.041Z,15.6
2023-10-02T03:42:00.588Z,15.6
2023-10-02T03:43:00.601Z,15.6
2023-10-02T03:44:00.890Z,15.6
2023-10-02T03:45:02.596Z,15.6
2023-10-02T03:46:01.700Z,15.6
2023-10-02T03:47:00.621Z,15.6
2023-10-02T03:48:00.620Z,15.6
2023-10-02T03:49:00.812Z,15.6
2023-10-02T03:50:00.838Z,15.6
2023-10-02T03:51:04.186Z,15.6
2023-10-02T03:52:00.697Z,15.6
2023-10-02T03:53:00.572Z,15.6
2023-10-02T03:54:00.672Z,15.6
2023-10-02T03:55:00.633Z,15.6
2023-10-02T03:56:02.294Z,15.6
2023-10-02T03:57:00.802Z,15.6
2023-10-02T03:58:00.562Z,15.6
2023-10-02T03:59:00.597Z,15.6
2023-10-02T04:00:02.616Z,15.6
2023-10-02T04:01:00.576Z,15.6
2023-10-02T04:02:00.601Z,15.6
2023-10-02T04:03:00.864Z,15.6
2023-10-02T04:04:00.735Z,15.6
2023-10-02T04:05:00.580Z,15.6
2023-10-02T04:06:00.670Z,15.6
2023-10-02T04:07:00.574Z,15.6
2023-10-02T04:08:06.064Z,15.6
2023-10-02T04:09:01.410Z,15.6
2023-10-02T04:10:00.566Z,15.6
2023-10-02T04:11:00.776Z,15.6
2023-10-02T04:12:00.571Z,15.6
2023-10-02T04:13:00.554Z,15.6
2023-10-02T04:14:00.826Z,15.6
2023-10-02T04:15:00.591Z,15.6
2023-10-02T04:16:01.578Z,15.6
2023-10-02T04:17:02.776Z,15.6
2023-10-02T04:18:00.581Z,15.6
2023-10-02T04:19:01.254Z,15.6
2023-10-02T04:20:00.639Z,15.6
2023-10-02T04:21:00.598Z,15.6
2023-10-02T04:22:00.809Z,15.6
2023-10-02T04:23:00.591Z,15.6
2023-10-02T04:24:01.693Z,15.6
2023-10-02T04:25:00.693Z,15.6
2023-10-02T04:26:00.603Z,15.6
2023-10-02T04:27:00.554Z,15.6
2023-10-02T04:28:00.563Z,15.6
2023-10-02T04:29:00.728Z,15.6
2023-10-02T04:30:00.578Z,15.6
2023-10-02T04:31:00.662Z,15.7
2023-10-02T04:32:00.620Z,15.7
2023-10-02T04:33:00.700Z,15.7
2023-10-02T04:34:01.053Z,15.7
2023-10-02T04:35:00.955Z,15.7
2023-10-02T04:36:00.564Z,15.7
2023-10-02T04:37:00.581Z,15.7
2023-10-02T04:38:01.046Z,15.7
2023-10-02T04:39:01.102Z,15.7
2023-10-02T04:40:00.659Z,15.7
2023-10-02T04:41:00.612Z,15.7
2023-10-02T04:42:02.376Z,15.7
2023-10-02T04:43:00.556Z,15.7
2023-10-02T04:44:00.992Z,15.7
2023-10-02T04:45:00.569Z,15.7
2023-10-02T04:46:00.607Z,15.7
2023-10-02T04:47:00.602Z,15.7
2023-10-02T04:48:00.635Z,15.7
2023-10-02T04:49:01.200Z,15.7
2023-10-02T04:50:03.703Z,15.7
2023-10-02T04:51:04.034Z,15.8
2023-10-02T04:52:00.840Z,15.7
2023-10-02T04:53:00.727Z,15.8
2023-10-02T04:54:00.592Z,15.8
2023-10-02T04:55:00.558Z,15.8
2023-10-02T04:56:01.477Z,15.8
2023-10-02T04:57:00.562Z,15.8
2023-10-02T04:58:02.063Z,15.8
2023-10-02T04:59:00.835Z,15.8
2023-10-02T05:00:00.741Z,15.8
2023-10-02T05:01:00.585Z,15.8
2023-10-02T05:02:00.587Z,15.8
2023-10-02T05:03:03.189Z,15.8
2023-10-02T05:04:01.752Z,15.8
2023-10-02T05:05:05.295Z,15.8
2023-10-02T05:06:00.812Z,15.8
2023-10-02T05:07:00.570Z,15.8
2023-10-02T05:08:00.580Z,15.8
2023-10-02T05:09:00.860Z,15.8
2023-10-02T05:10:00.580Z,15.8
2023-10-02T05:11:02.506Z,15.8
2023-10-02T05:12:00.568Z,15.9
2023-10-02T05:13:00.561Z,15.9
2023-10-02T05:14:01.214Z,15.9
2023-10-02T05:15:00.577Z,15.9
2023-10-02T05:16:02.630Z,15.9
2023-10-02T05:17:03.020Z,15.9
2023-10-02T05:18:00.629Z,15.9
2023-10-02T05:19:01.976Z,15.9
2023-10-02T05:20:00.691Z,15.9
2023-10-02T05:21:00.616Z,15.9
2023-10-02T05:22:00.593Z,16.0
2023-10-02T05:23:01.002Z,16.0
2023-10-02T05:24:00.550Z,16.0
2023-10-02T05:25:00.897Z,16.0
2023-10-02T05:26:00.723Z,16.0
2023-10-02T05:27:00.642Z,16.0
2023-10-02T05:28:00.772Z,16.0
2023-10-02T05:29:01.687Z,16.0
2023-10-02T05:30:02.610Z,16.0
2023-10-02T05:31:00.610Z,16.0
2023-10-02T05:32:00.596Z,16.0
2023-10-02T05:33:00.656Z,16.0
2023-10-02T05:34:00.562Z,16.1
2023-10-02T05:35:02.345Z,16.1
2023-10-02T05:36:03.496Z,16.1
2023-10-02T05:37:00.557Z,16.1
2023-10-02T05:38:00.598Z,16.1
2023-10-02T05:39:00.890Z,16.1
2023-10-02T05:40:01.283Z,16.1
2023-10-02T05:41:00.951Z,16.1
2023-10-02T05:42:00.761Z,16.1
2023-10-02T05:43:00.649Z,16.1
2023-10-02T05:44:00.604Z,16.1
2023-10-02T05:45:00.663Z,16.1
2023-10-02T05:46:00.563Z,16.1
2023-10-02T05:47:02.312Z,16.1
2023-10-02T05:48:00.619Z,16.1
2023-10-02T05:49:00.701Z,16.1
2023-10-02T05:50:00.640Z,16.2
2023-10-02T05:51:04.877Z,16.2
2023-10-02T05:52:00.573Z,16.2
2023-10-02T05:53:00.622Z,16.2
2023-10-02T05:54:00.562Z,16.2
2023-10-02T05:55:00.616Z,16.2
2023-10-02T05:56:00.954Z,16.2
2023-10-02T05:57:00.612Z,16.2
2023-10-02T05:58:01.388Z,16.2
2023-10-02T05:59:00.954Z,16.2
2023-10-02T06:00:00.565Z,16.2
2023-10-02T06:01:04.175Z,16.2
2023-10-02T06:02:00.576Z,16.3
2023-10-02T06:03:02.959Z,16.3
2023-10-02T06:04:00.586Z,16.3
2023-10-02T06:05:00.608Z,16.3
2023-10-02T06:06:02.726Z,16.3
2023-10-02T06:07:00.581Z,16.3
2023-10-02T06:08:00.573Z,16.3
2023-10-02T06:09:00.842Z,16.3
2023-10-02T06:10:00.570Z,16.3
2023-10-02T06:11:02.403Z,16.3
2023-10-02T06:12:00.575Z,16.3
2023-10-02T06:13:00.580Z,16.3
2023-10-02T06:14:03.695Z,16.3
2023-10-02T06:15:00.824Z,16.4
2023-10-02T06:16:00.561Z,16.3
2023-10-02T06:17:00.662Z,16.4
2023-10-02T06:18:00.635Z,16.4
2023-10-02T06:19:00.790Z,16.4
2023-10-02T06:20:00.761Z,16.4
2023-10-02T06:21:00.569Z,16.4
2023-10-02T06:22:00.573Z,16.4
2023-10-02T06:23:00.656Z,16.4
2023-10-02T06:24:00.591Z,16.4
2023-10-02T06:25:00.560Z,16.4
2023-10-02T06:26:00.679Z,16.5
2023-10-02T06:27:00.734Z,16.5
2023-10-02T06:28:00.558Z,16.5
2023-10-02T06:29:00.823Z,16.6
2023-10-02T06:30:00.581Z,16.6
2023-10-02T06:31:00.616Z,16.6
2023-10-02T06:32:02.089Z,16.7
2023-10-02T06:33:00.639Z,16.7
2023-10-02T06:34:00.571Z,16.8
2023-10-02T06:35:00.664Z,16.8
2023-10-02T06:36:04.426Z,16.8
2023-10-02T06:37:00.566Z,16.9
2023-10-02T06:38:00.639Z,16.9
2023-10-02T06:39:00.923Z,17.0
2023-10-02T06:40:00.583Z,17.0
2023-10-02T06:41:08.225Z,17.0
2023-10-02T06:42:01.195Z,17.0
2023-10-02T06:43:00.568Z,17.0
2023-10-02T06:44:00.614Z,17.0
2023-10-02T06:45:00.611Z,17.0
2023-10-02T06:46:09.566Z,17.0
2023-10-02T06:47:00.633Z,17.1
2023-10-02T06:48:00.569Z,17.1
2023-10-02T06:49:00.718Z,17.2
2023-10-02T06:50:00.769Z,17.2
2023-10-02T06:51:02.427Z,17.2
2023-10-02T06:52:00.583Z,17.2
2023-10-02T06:53:00.937Z,17.3
2023-10-02T06:54:00.573Z,17.3
2023-10-02T06:55:00.898Z,17.4
2023-10-02T06:56:00.701Z,17.4
2023-10-02T06:57:00.564Z,17.5
2023-10-02T06:58:00.569Z,17.5
2023-10-02T06:59:00.880Z,17.5
2023-10-02T07:00:00.586Z,17.5
2023-10-02T07:01:00.585Z,17.6
2023-10-02T07:02:00.652Z,17.6
2023-10-02T07:03:00.637Z,17.6
2023-10-02T07:04:00.761Z,17.7
2023-10-02T07:05:00.646Z,17.8
2023-10-02T07:06:05.327Z,17.8
2023-10-02T07:07:00.559Z,17.9
2023-10-02T07:08:02.953Z,18.0
2023-10-02T07:09:00.770Z,18.0
2023-10-02T07:10:00.572Z,18.1
2023-10-02T07:11:00.607Z,18.1
2023-10-02T07:12:01.554Z,18.0
2023-10-02T07:13:00.554Z,18.0
2023-10-02T07:14:00.852Z,18.0
2023-10-02T07:15:00.587Z,18.1
2023-10-02T07:16:00.634Z,18.1
2023-10-02T07:17:00.668Z,18.1
2023-10-02T07:18:00.624Z,18.2
2023-10-02T07:19:01.388Z,18.2
2023-10-02T07:20:03.055Z,18.2
2023-10-02T07:21:01.889Z,18.3
2023-10-02T07:22:00.558Z,18.4
2023-10-02T07:23:00.657Z,18.5
2023-10-02T07:24:01.784Z,18.5
2023-10-02T07:25:00.556Z,18.6
2023-10-02T07:26:00.624Z,18.7
2023-10-02T07:27:00.637Z,18.7
2023-10-02T07:28:00.605Z,18.8
2023-10-02T07:29:00.717Z,18.8
2023-10-02T07:30:03.773Z,18.9
2023-10-02T07:31:00.560Z,19.0
2023-10-02T07:32:00.622Z,19.0
2023-10-02T07:33:00.654Z,19.1
2023-10-02T07:34:01.096Z,19.1
2023-10-02T07:35:00.702Z,19.2
2023-10-02T07:36:01.918Z,19.3
2023-10-02T07:37:00.585Z,19.6
2023-10-02T07:38:00.637Z,19.8
2023-10-02T07:39:00.876Z,20.2
2023-10-02T07:40:00.596Z,20.5
2023-10-02T07:41:00.588Z,20.6
2023-10-02T07:42:00.644Z,20.8
2023-10-02T07:43:00.623Z,20.9
2023-10-02T07:44:00.585Z,20.7
2023-10-02T07:45:06.165Z,20.7
2023-10-02T07:46:04.041Z,20.7
2023-10-02T07:47:00.596Z,20.8
2023-10-02T07:48:01.011Z,20.7
2023-10-02T07:49:00.832Z,20.7
2023-10-02T07:50:00.660Z,20.9
2023-10-02T07:51:00.815Z,20.9
2023-10-02T07:52:00.573Z,21.2
2023-10-02T07:53:02.417Z,21.3
2023-10-02T07:54:00.854Z,21.5
2023-10-02T07:55:00.639Z,22.0
2023-10-02T07:56:00.637Z,22.4
2023-10-02T07:57:00.567Z,22.5
2023-10-02T07:58:00.987Z,22.5
2023-10-02T07:59:00.847Z,22.9
2023-10-02T08:00:02.368Z,23.3
2023-10-02T08:01:00.607Z,23.4
2023-10-02T08:02:00.653Z,23.4
2023-10-02T08:03:00.708Z,23.5
2023-10-02T08:04:00.706Z,23.4
2023-10-02T08:05:00.726Z,23.2
2023-10-02T08:06:04.748Z,23.1
2023-10-02T08:07:14.026Z,22.9
2023-10-02T08:08:00.580Z,22.4
2023-10-02T08:09:02.914Z,22.5
2023-10-02T08:10:00.708Z,22.6
2023-10-02T08:11:01.839Z,22.5
2023-10-02T08:12:00.573Z,22.5
2023-10-02T08:13:00.562Z,22.4
2023-10-02T08:14:00.828Z,22.5
2023-10-02T08:15:04.042Z,22.6
2023-10-02T08:16:01.667Z,22.7
2023-10-02T08:17:01.745Z,22.6
2023-10-02T08:18:00.680Z,22.6
2023-10-02T08:19:00.924Z,22.5
2023-10-02T08:20:01.166Z,22.5
2023-10-02T08:21:00.609Z,22.5
2023-10-02T08:22:00.606Z,22.5
2023-10-02T08:23:08.377Z,22.5
2023-10-02T08:24:01.330Z,22.5
2023-10-02T08:25:01.166Z,22.6
2023-10-02T08:26:10.071Z,22.5
2023-10-02T08:27:00.636Z,22.7
2023-10-02T08:28:00.579Z,22.9
2023-10-02T08:29:00.825Z,23.2
2023-10-02T08:30:00.557Z,23.6
2023-10-02T08:31:01.310Z,23.7
2023-10-02T08:32:00.677Z,23.8
2023-10-02T08:33:02.582Z,23.9
2023-10-02T08:34:03.721Z,24.1
2023-10-02T08:35:00.811Z,24.0
2023-10-02T08:36:00.967Z,24.3
2023-10-02T08:37:00.559Z,24.4
2023-10-02T08:38:00.659Z,24.3
2023-10-02T08:39:17.374Z,24.0
2023-10-02T08:40:00.584Z,23.9
2023-10-02T08:41:04.003Z,23.9
2023-10-02T08:42:01.440Z,23.7
2023-10-02T08:43:00.586Z,23.6
2023-10-02T08:44:00.613Z,23.5
2023-10-02T08:45:00.664Z,23.3
2023-10-02T08:46:02.081Z,23.2
2023-10-02T08:47:00.581Z,23.4
2023-10-02T08:48:00.627Z,23.5
2023-10-02T08:49:00.866Z,23.3
2023-10-02T08:50:00.610Z,23.2
2023-10-02T08:51:00.616Z,23.2
2023-10-02T08:52:00.945Z,23.4
2023-10-02T08:53:00.655Z,23.2
2023-10-02T08:54:02.128Z,22.8
2023-10-02T08:55:16.052Z,22.7
2023-10-02T08:56:00.583Z,22.7
2023-10-02T08:57:03.813Z,22.9
2023-10-02T08:58:12.600Z,23.0
2023-10-02T08:59:11.615Z,23.0
2023-10-02T09:00:11.557Z,23.1
2023-10-02T09:01:01.583Z,23.4
2023-10-02T09:02:06.631Z,23.4
2023-10-02T09:03:15.972Z,23.6
2023-10-02T09:04:07.151Z,23.6
2023-10-02T09:05:03.628Z,23.7
2023-10-02T09:06:00.564Z,23.6
2023-10-02T09:07:00.638Z,23.6
2023-10-02T09:08:00.624Z,23.7
2023-10-02T09:09:00.838Z,23.7
2023-10-02T09:10:08.436Z,23.7
2023-10-02T09:11:00.648Z,23.9
2023-10-02T09:12:00.585Z,24.1
2023-10-02T09:13:16.677Z,24.1
2023-10-02T09:14:02.335Z,23.9
2023-10-02T09:15:01.050Z,23.8
2023-10-02T09:16:10.640Z,23.6
2023-10-02T09:17:03.223Z,23.4
2023-10-02T09:18:00.895Z,23.1
2023-10-02T09:19:00.830Z,23.1
2023-10-02T09:20:02.544Z,22.9
2023-10-02T09:21:01.037Z,22.8
2023-10-02T09:22:01.805Z,22.9
2023-10-02T09:23:00.626Z,22.8
2023-10-02T09:24:00.617Z,22.8
2023-10-02T09:25:05.711Z,22.8
2023-10-02T09:26:01.130Z,22.7
2023-10-02T09:27:01.450Z,22.7
2023-10-02T09:28:00.577Z,22.8
2023-10-02T09:29:01.826Z,22.8
2023-10-02T09:30:03.396Z,22.7
2023-10-02T09:31:01.255Z,22.8
2023-10-02T09:32:00.576Z,22.7
2023-10-02T09:33:04.880Z,22.7
2023-10-02T09:34:05.599Z,22.7
2023-10-02T09:35:12.412Z,22.8
2023-10-02T09:36:33.537Z,22.7
2023-10-02T09:37:15.340Z,22.8
2023-10-02T09:38:07.032Z,22.8
2023-10-02T09:39:03.081Z,22.7
2023-10-02T09:40:02.017Z,22.7
2023-10-02T09:41:01.031Z,22.7
2023-10-02T09:42:02.199Z,22.6
2023-10-02T09:43:07.993Z,22.7
2023-10-02T09:44:03.496Z,22.8
2023-10-02T09:45:03.027Z,22.7
2023-10-02T09:46:02.679Z,22.6
2023-10-02T09:47:00.822Z,22.5
2023-10-02T09:48:06.589Z,22.4
2023-10-02T09:49:05.790Z,22.4
2023-10-02T09:50:12.932Z,22.4
2023-10-02T09:51:04.997Z,22.4
2023-10-02T09:52:13.363Z,22.4
2023-10-02T09:53:05.185Z,22.4
2023-10-02T09:54:14.017Z,22.4
2023-10-02T09:55:16.015Z,22.4
2023-10-02T09:56:09.529Z,22.4
2023-10-02T09:57:05.857Z,22.4
2023-10-02T09:58:06.131Z,22.5
2023-10-02T09:59:01.080Z,22.5
2023-10-02T10:00:05.572Z,22.4
2023-10-02T10:01:30.634Z,22.4
2023-10-02T10:02:08.070Z,22.4
2023-10-02T10:03:30.703Z,22.3
2023-10-02T10:04:00.747Z,22.3
2023-10-02T10:05:01.745Z,22.4
2023-10-02T10:06:08.052Z,22.3
2023-10-02T10:07:02.497Z,22.4
2023-10-02T10:08:01.609Z,22.3
2023-10-02T10:09:01.795Z,22.3
2023-10-02T10:10:41.853Z,22.3
2023-10-02T10:11:04.563Z,22.3
2023-10-02T10:12:00.638Z,22.2
2023-10-02T10:13:00.716Z,22.2
2023-10-02T10:14:30.902Z,22.2
2023-10-02T10:15:30.623Z,22.2
2023-10-02T10:16:30.561Z,22.2
2023-10-02T10:17:00.611Z,22.2
2023-10-02T10:18:00.635Z,22.3
2023-10-02T10:19:01.780Z,22.3
2023-10-02T10:20:07.974Z,22.4
2023-10-02T10:21:46.881Z,22.5
2023-10-02T10:22:00.563Z,22.5
2023-10-02T10:23:19.250Z,22.4
2023-10-02T10:24:32.452Z,22.4
2023-10-02T10:25:00.623Z,22.4
2023-10-02T10:26:00.695Z,22.4
2023-10-02T10:27:01.081Z,22.3
2023-10-02T10:28:00.621Z,22.2
2023-10-02T10:29:38.485Z,22.2
2023-10-02T10:30:30.083Z,22.3
2023-10-02T10:31:00.678Z,22.2
2023-10-02T10:32:14.925Z,22.3
2023-10-02T10:33:01.614Z,22.3
2023-10-02T10:34:00.577Z,22.3
2023-10-02T10:35:00.610Z,22.2
2023-10-02T10:36:00.979Z,22.2
2023-10-02T10:37:00.573Z,22.2
2023-10-02T10:38:01.493Z,22.2
2023-10-02T10:39:00.796Z,22.2
2023-10-02T10:40:00.583Z,22.2
2023-10-02T10:41:01.636Z,22.2
2023-10-02T10:42:01.092Z,22.1
2023-10-02T10:43:00.723Z,22.2
2023-10-02T10:44:00.613Z,22.1
2023-10-02T10:45:08.519Z,22.1
2023-10-02T10:46:01.165Z,22.0
2023-10-02T10:47:00.595Z,22.0
2023-10-02T10:48:00.610Z,22.1
2023-10-02T10:49:02.615Z,22.1
2023-10-02T10:50:00.606Z,22.0
2023-10-02T10:51:09.343Z,22.0
2023-10-02T10:52:00.595Z,22.1
2023-10-02T10:53:01.149Z,22.0
2023-10-02T10:54:22.285Z,22.0
2023-10-02T10:55:03.418Z,22.1
2023-10-02T10:56:03.114Z,22.0
2023-10-02T10:57:02.105Z,22.1
2023-10-02T10:58:00.614Z,22.1
2023-10-02T10:59:00.992Z,22.1
2023-10-02T11:00:03.450Z,22.1
2023-10-02T11:01:01.833Z,22.1
2023-10-02T11:02:05.733Z,22.1
2023-10-02T11:03:03.156Z,22.2
2023-10-02T11:04:02.300Z,22.2
2023-10-02T11:05:00.647Z,22.2
2023-10-02T11:06:01.958Z,22.3
2023-10-02T11:07:00.568Z,22.3
2023-10-02T11:08:10.364Z,22.3
2023-10-02T11:09:05.127Z,22.3
2023-10-02T11:10:02.207Z,22.3
2023-10-02T11:11:02.822Z,22.3
2023-10-02T11:12:00.605Z,22.3
2023-10-02T11:13:00.554Z,22.3
2023-10-02T11:14:02.183Z,22.3
2023-10-02T11:15:00.599Z,22.3
2023-10-02T11:16:00.588Z,22.3
2023-10-02T11:17:01.211Z,22.3
2023-10-02T11:18:17.885Z,22.3
2023-10-02T11:19:01.663Z,22.3
2023-10-02T11:20:00.591Z,22.3
2023-10-02T11:21:00.569Z,22.3
2023-10-02T11:22:02.629Z,22.2
2023-10-02T11:23:00.647Z,22.3
2023-10-02T11:24:17.914Z,22.3
2023-10-02T11:25:01.597Z,22.2
2023-10-02T11:26:00.595Z,22.2
2023-10-02T11:27:06.159Z,22.3
2023-10-02T11:28:00.591Z,22.3
2023-10-02T11:29:00.859Z,22.3
2023-10-02T11:30:06.432Z,22.3
2023-10-02T11:31:30.983Z,22.2
2023-10-02T11:32:00.657Z,22.2
2023-10-02T11:33:00.705Z,22.3
2023-10-02T11:34:16.028Z,22.3
2023-10-02T11:35:00.931Z,22.2
2023-10-02T11:36:00.584Z,22.3
2023-10-02T11:37:11.012Z,22.3
2023-10-02T11:38:00.935Z,22.3
2023-10-02T11:39:03.505Z,22.3
2023-10-02T11:40:00.609Z,22.3
2023-10-02T11:41:00.610Z,22.4
2023-10-02T11:42:00.597Z,22.4
2023-10-02T11:43:00.599Z,22.3
2023-10-02T11:44:00.841Z,22.3
2023-10-02T11:45:00.641Z,22.4
2023-10-02T11:46:00.577Z,22.5
2023-10-02T11:47:01.034Z,22.5
2023-10-02T11:48:00.719Z,22.5
2023-10-02T11:49:00.810Z,22.5
2023-10-02T11:50:00.620Z,22.5
2023-10-02T11:51:00.612Z,22.5
2023-10-02T11:52:00.608Z,22.5
2023-10-02T11:53:00.578Z,22.5
2023-10-02T11:54:01.225Z,22.5
2023-10-02T11:55:00.980Z,22.5
2023-10-02T11:56:00.619Z,22.5
2023-10-02T11:57:00.588Z,22.5
2023-10-02T11:58:00.567Z,22.5
2023-10-02T11:59:01.355Z,22.5
2023-10-02T12:00:00.569Z,22.5
2023-10-02T12:01:03.935Z,22.6
2023-10-02T12:02:01.286Z,22.6
2023-10-02T12:03:00.609Z,22.6
2023-10-02T12:04:00.710Z,22.6
2023-10-02T12:05:00.612Z,22.7
2023-10-02T12:06:00.554Z,22.6
2023-10-02T12:07:00.617Z,22.6
2023-10-02T12:08:02.226Z,22.6
2023-10-02T12:09:00.748Z,22.6
2023-10-02T12:10:00.611Z,22.6
2023-10-02T12:11:00.601Z,22.7
2023-10-02T12:12:01.275Z,22.6
2023-10-02T12:13:00.570Z,22.7
2023-10-02T12:14:01.298Z,22.7
2023-10-02T12:15:00.593Z,22.8
2023-10-02T12:16:00.645Z,22.8
2023-10-02T12:17:00.568Z,22.8
2023-10-02T12:18:00.598Z,22.8
2023-10-02T12:19:00.963Z,22.8
2023-10-02T12:20:00.858Z,22.8
2023-10-02T12:21:00.593Z,22.8
2023-10-02T12:22:08.682Z,22.8
2023-10-02T12:23:00.592Z,22.8
2023-10-02T12:24:00.572Z,22.8
2023-10-02T12:25:00.576Z,22.8
2023-10-02T12:26:00.604Z,22.8
2023-10-02T12:27:00.622Z,22.8
2023-10-02T12:28:00.557Z,22.8
2023-10-02T12:29:00.844Z,22.8
2023-10-02T12:30:00.730Z,22.8
2023-10-02T12:31:06.119Z,22.8
2023-10-02T12:32:00.647Z,22.8
2023-10-02T12:33:00.649Z,22.8
2023-10-02T12:34:00.556Z,22.8
2023-10-02T12:35:00.594Z,22.8
2023-10-02T12:36:00.934Z,22.8
2023-10-02T12:37:00.654Z,22.8
2023-10-02T12:38:00.588Z,22.8
2023-10-02T12:39:01.438Z,22.8
2023-10-02T12:40:00.645Z,22.8
2023-10-02T12:41:00.587Z,22.8
2023-10-02T12:42:00.569Z,22.8
2023-10-02T12:43:01.025Z,22.9
2023-10-02T12:44:00.649Z,22.9
2023-10-02T12:45:00.564Z,22.9
2023-10-02T12:46:00.969Z,23.0
2023-10-02T12:47:00.628Z,23.0
2023-10-02T12:48:05.971Z,23.0
2023-10-02T12:49:00.806Z,23.0
2023-10-02T12:50:00.626Z,23.1
2023-10-02T12:51:05.179Z,23.1
2023-10-02T12:52:00.734Z,23.1
2023-10-02T12:53:00.580Z,23.1
2023-10-02T12:54:00.612Z,23.2
2023-10-02T12:55:00.584Z,23.2
2023-10-02T12:56:00.626Z,23.2
2023-10-02T12:57:00.556Z,23.2
2023-10-02T12:58:01.377Z,23.3
2023-10-02T12:59:00.834Z,23.3
2023-10-02T13:00:00.741Z,23.3
2023-10-02T13:01:00.636Z,23.4
2023-10-02T13:02:00.607Z,23.4
2023-10-02T13:03:00.609Z,23.4
2023-10-02T13:04:00.691Z,23.4
2023-10-02T13:05:00.652Z,23.5
2023-10-02T13:06:00.909Z,23.5
2023-10-02T13:07:00.587Z,23.5
2023-10-02T13:08:00.593Z,23.5
2023-10-02T13:09:00.975Z,23.5
2023-10-02T13:10:00.734Z,23.5
2023-10-02T13:11:00.588Z,23.5
2023-10-02T13:12:00.643Z,23.5
2023-10-02T13:13:00.612Z,23.5
2023-10-02T13:14:00.608Z,23.5
2023-10-02T13:15:00.585Z,23.5
2023-10-02T13:16:00.615Z,23.4
2023-10-02T13:17:00.607Z,23.4
2023-10-02T13:18:00.730Z,23.5